EGCK

Caernarfon Airport

Airport
ICAO code
EGCK
Summary
ICAO Region
EUR
ICAO Territory
Location

,

Serving
Caernarfon
Elevation
1 ft
Coordinates
53° 6' 15" N , 4° 20' 25" W
Metar
EGCK 240450Z AUTO VRB02KT 9999 BKN019/// OVC030/// 04/03 Q0989

Runways

Designator Length Width Surface Rops
8/26 880 23 ASP No/No
2/20 1077 23 ASP No/No

Airport map

Aerial View

SKYbrary Partners:

Safety knowledge contributed by: